Time;durP1;ratioP1;P1;durP2;ratioP2;P2;SDS_P1;SDS_P2;PMS_P1;PMS_P2;Temp;Humidity;BMP_temperature;BMP_pressure;BME280_temperature;BME280_humidity;BME280_pressure;Samples;Min_cycle;Max_cycle;Signal;HPM_P1;HPM_P2
2024/04/16 00:02:09;;;;;;;0.00;0.00;;;8.70;89.90;;;;;;5172288;27;20004;-79
2024/04/16 00:04:34;;;;;;;0.00;0.00;;;8.80;89.70;;;;;;5162538;27;20008;-77
2024/04/16 00:07:00;;;;;;;4.63;0.17;;;8.90;89.60;;;;;;5188691;27;20013;-76
2024/04/16 00:09:26;;;;;;;0.03;0.03;;;8.80;88.30;;;;;;5243733;26;20027;-76
2024/04/16 00:11:51;;;;;;;0.08;0.03;;;8.90;88.90;;;;;;5221014;27;20003;-72
2024/04/16 00:14:17;;;;;;;1.08;0.08;;;9.00;89.20;;;;;;5250708;26;20017;-76
2024/04/16 00:16:42;;;;;;;1.65;0.17;;;9.10;87.40;;;;;;5306277;26;19997;-75
2024/04/16 00:19:08;;;;;;;2.40;0.15;;;9.00;87.20;;;;;;5305737;26;20002;-80
2024/04/16 00:21:34;;;;;;;2.35;0.10;;;9.00;87.80;;;;;;5307819;26;20009;-78
2024/04/16 00:23:59;;;;;;;0.00;0.00;;;9.00;88.20;;;;;;5316070;26;20080;-82
2024/04/16 00:26:25;;;;;;;0.40;0.00;;;9.00;88.20;;;;;;5333315;26;20005;-74
2024/04/16 00:28:51;;;;;;;0.93;0.00;;;9.00;87.60;;;;;;5332018;26;20000;-81
2024/04/16 00:31:16;;;;;;;1.33;0.10;;;8.90;88.20;;;;;;5312982;26;20021;-80
2024/04/16 00:33:42;;;;;;;1.83;0.13;;;8.90;88.20;;;;;;5312915;26;20017;-69
2024/04/16 00:36:07;;;;;;;0.30;0.00;;;8.90;88.10;;;;;;5327422;26;20082;-69
2024/04/16 00:38:33;;;;;;;0.10;0.00;;;8.90;88.40;;;;;;5342538;26;20077;-74
2024/04/16 00:40:59;;;;;;;0.45;0.00;;;8.90;88.60;;;;;;5391784;26;20003;-80
2024/04/16 00:43:24;;;;;;;0.38;0.00;;;9.00;89.20;;;;;;5418401;26;20467;-79
2024/04/16 00:45:53;;;;;;;0.00;0.00;;;9.10;88.80;;;;;;5414261;26;20014;-77
2024/04/16 00:48:22;;;;;;;2.38;0.10;;;9.10;87.60;;;;;;5417128;26;20020;-75
2024/04/16 00:50:48;;;;;;;0.40;0.00;;;9.00;87.90;;;;;;5418879;26;20002;-81
2024/04/16 00:53:14;;;;;;;0.32;0.00;;;9.10;88.40;;;;;;5416511;26;20043;-79
2024/04/16 00:55:40;;;;;;;0.65;0.08;;;9.10;88.40;;;;;;5391185;26;20003;-77
2024/04/16 00:58:08;;;;;;;0.63;0.00;;;9.10;87.30;;;;;;5417431;26;20016;-77
2024/04/16 01:00:33;;;;;;;4.07;0.30;;;9.20;87.90;;;;;;5411951;26;20007;-69
2024/04/16 01:02:59;;;;;;;0.95;0.00;;;9.20;86.80;;;;;;5419938;26;20011;-81
2024/04/16 01:05:26;;;;;;;0.35;0.00;;;9.20;86.60;;;;;;5417657;26;20027;-78
2024/04/16 01:07:51;;;;;;;1.48;0.10;;;9.20;86.30;;;;;;5414455;26;20000;-81
2024/04/16 01:10:17;;;;;;;1.50;0.15;;;9.20;86.20;;;;;;5389275;26;20009;-70
2024/04/16 01:12:43;;;;;;;0.00;0.00;;;9.10;84.60;;;;;;5413883;26;19999;-75
2024/04/16 01:15:09;;;;;;;0.13;0.00;;;9.00;84.60;;;;;;5417454;26;20010;-74
2024/04/16 01:17:34;;;;;;;2.75;0.10;;;9.00;85.00;;;;;;5409749;26;20002;-77
2024/04/16 01:20:00;;;;;;;0.43;0.00;;;9.00;85.20;;;;;;5415941;26;20335;-78
2024/04/16 01:22:25;;;;;;;2.13;0.20;;;9.10;84.90;;;;;;5410705;26;20604;-77
2024/04/16 01:24:51;;;;;;;0.43;0.03;;;9.20;84.80;;;;;;5417426;26;20014;-76
2024/04/16 01:27:17;;;;;;;3.42;0.10;;;9.10;84.70;;;;;;5409790;26;19995;-70
2024/04/16 01:29:43;;;;;;;1.27;0.00;;;9.10;85.70;;;;;;5409638;26;20069;-73
2024/04/16 01:32:09;;;;;;;0.00;0.00;;;9.00;85.10;;;;;;5411943;26;20003;-67
2024/04/16 01:34:34;;;;;;;3.15;0.28;;;8.80;85.30;;;;;;5410919;26;20042;-72
2024/04/16 01:37:00;;;;;;;0.22;0.00;;;8.80;86.50;;;;;;5416309;26;20458;-73
2024/04/16 01:39:25;;;;;;;0.63;0.10;;;8.70;86.50;;;;;;5411821;26;19995;-71
2024/04/16 01:41:51;;;;;;;1.02;0.10;;;8.70;87.40;;;;;;5387376;26;20010;-69
2024/04/16 01:44:17;;;;;;;0.13;0.00;;;8.70;87.20;;;;;;5387923;26;20368;-73
2024/04/16 01:46:42;;;;;;;2.60;0.00;;;8.70;88.00;;;;;;5388375;26;20011;-70
2024/04/16 01:49:08;;;;;;;0.73;0.10;;;8.70;87.90;;;;;;5373676;26;19997;-71
2024/04/16 01:51:33;;;;;;;1.35;0.10;;;8.70;86.60;;;;;;5345546;26;20012;-71
2024/04/16 01:53:59;;;;;;;0.40;0.00;;;8.70;86.40;;;;;;5345689;26;20432;-71
2024/04/16 01:56:24;;;;;;;0.28;0.00;;;8.60;86.20;;;;;;5354069;26;20371;-72
2024/04/16 01:58:50;;;;;;;1.02;0.10;;;8.50;86.40;;;;;;5356056;26;20012;-72
2024/04/16 02:01:15;;;;;;;0.00;0.00;;;8.50;87.30;;;;;;5360120;26;20019;-68
2024/04/16 02:03:41;;;;;;;0.00;0.00;;;8.60;87.20;;;;;;5396249;26;20012;-71
2024/04/16 02:06:07;;;;;;;0.55;0.00;;;8.60;87.90;;;;;;5421375;26;20672;-72
2024/04/16 02:08:33;;;;;;;0.30;0.00;;;8.70;88.10;;;;;;5405412;26;20054;-72
2024/04/16 02:10:58;;;;;;;0.98;0.10;;;8.60;87.00;;;;;;5387343;26;20878;-72
2024/04/16 02:13:30;;;;;;;0.55;0.00;;;8.60;87.40;;;;;;5359177;26;20013;-66
2024/04/16 02:15:56;;;;;;;0.00;0.00;;;8.60;87.00;;;;;;5294084;26;20001;-70
2024/04/16 02:18:22;;;;;;;0.17;0.00;;;8.60;86.80;;;;;;5320531;26;20799;-71
2024/04/16 02:20:47;;;;;;;0.52;0.00;;;8.60;87.00;;;;;;5354596;26;20150;-71
2024/04/16 02:23:13;;;;;;;0.40;0.00;;;8.50;86.30;;;;;;5378740;26;20338;-70
2024/04/16 02:25:48;;;;;;;0.38;0.00;;;8.40;86.10;;;;;;5344960;26;20016;-71
2024/04/16 02:28:14;;;;;;;0.20;0.00;;;8.20;86.60;;;;;;5340289;26;19993;-72
2024/04/16 02:30:41;;;;;;;0.00;0.00;;;8.10;87.10;;;;;;5347585;26;20007;-73
2024/04/16 02:33:10;;;;;;;0.00;0.00;;;8.00;88.50;;;;;;5335950;26;20152;-71
2024/04/16 02:35:35;;;;;;;6.50;0.40;;;7.90;87.40;;;;;;5348599;26;20340;-72
2024/04/16 02:38:01;;;;;;;0.10;0.00;;;7.90;88.20;;;;;;5319573;26;20011;-70
2024/04/16 02:40:26;;;;;;;1.13;0.20;;;7.80;88.40;;;;;;5399855;26;20392;-72
2024/04/16 02:42:52;;;;;;;0.15;0.00;;;7.80;88.80;;;;;;5354558;26;20328;-70
2024/04/16 02:45:20;;;;;;;0.55;0.00;;;7.90;88.30;;;;;;5352795;26;20016;-71
2024/04/16 02:47:45;;;;;;;10.65;0.20;;;7.80;87.90;;;;;;5348264;26;20075;-74
2024/04/16 02:50:11;;;;;;;0.00;0.00;;;7.80;88.10;;;;;;5331265;26;20012;-71
2024/04/16 02:52:36;;;;;;;0.00;0.00;;;7.60;88.50;;;;;;5346283;26;19992;-69
2024/04/16 02:55:03;;;;;;;0.00;0.00;;;7.60;89.40;;;;;;5346085;26;20013;-74
2024/04/16 02:57:28;;;;;;;0.00;0.00;;;7.50;88.60;;;;;;5347593;26;20019;-74
2024/04/16 02:59:54;;;;;;;0.75;0.10;;;7.50;89.10;;;;;;5359931;26;19991;-73
2024/04/16 03:02:20;;;;;;;0.30;0.00;;;7.60;89.90;;;;;;5373688;26;20032;-70
2024/04/16 03:04:48;;;;;;;0.98;0.10;;;7.70;88.70;;;;;;5294698;26;19997;-73
2024/04/16 03:07:14;;;;;;;1.65;0.00;;;7.70;88.60;;;;;;5308342;26;20181;-74
2024/04/16 03:09:39;;;;;;;0.40;0.00;;;7.70;88.70;;;;;;5320860;26;20392;-71
2024/04/16 03:12:05;;;;;;;0.32;0.00;;;7.70;89.30;;;;;;5345775;26;19997;-72
2024/04/16 03:14:31;;;;;;;0.38;0.00;;;7.80;88.80;;;;;;5320689;26;20019;-75
2024/04/16 03:16:56;;;;;;;0.30;0.00;;;7.80;88.30;;;;;;5327217;26;20111;-75
2024/04/16 03:19:22;;;;;;;2.05;0.00;;;7.90;88.40;;;;;;5334886;26;20000;-74
2024/04/16 03:21:47;;;;;;;9.80;0.40;;;7.90;88.80;;;;;;5315718;26;24457;-75
2024/04/16 03:24:13;;;;;;;0.03;0.00;;;7.80;88.00;;;;;;5335221;26;20790;-67
2024/04/16 03:26:39;;;;;;;0.10;0.00;;;7.70;88.50;;;;;;5324485;26;20002;-68
2024/04/16 03:29:04;;;;;;;0.77;0.00;;;7.70;88.70;;;;;;5343595;26;20456;-70
2024/04/16 03:31:30;;;;;;;0.43;0.08;;;7.60;89.10;;;;;;5342819;26;20077;-74
2024/04/16 03:33:56;;;;;;;0.68;0.10;;;7.60;89.40;;;;;;5360725;26;20070;-74
2024/04/16 03:36:21;;;;;;;0.40;0.00;;;7.60;89.50;;;;;;5343951;26;20004;-76
2024/04/16 03:38:47;;;;;;;0.10;0.00;;;7.60;89.40;;;;;;5351665;26;20349;-77
2024/04/16 03:41:12;;;;;;;0.00;0.00;;;7.50;89.20;;;;;;5357846;26;20331;-74
2024/04/16 03:43:38;;;;;;;0.13;0.00;;;7.50;90.10;;;;;;5397774;26;20010;-73
2024/04/16 03:46:04;;;;;;;0.70;0.00;;;7.40;89.50;;;;;;5387632;26;20040;-74
2024/04/16 03:48:29;;;;;;;0.43;0.00;;;7.40;90.10;;;;;;5408235;26;20031;-73
2024/04/16 03:50:55;;;;;;;0.00;0.00;;;7.40;90.30;;;;;;5406589;26;19992;-74
2024/04/16 03:53:21;;;;;;;2.35;0.10;;;7.40;90.20;;;;;;5406289;26;20446;-71
2024/04/16 03:55:46;;;;;;;1.38;0.10;;;7.40;90.30;;;;;;5410149;26;20565;-70
2024/04/16 03:58:13;;;;;;;0.00;0.00;;;7.40;90.20;;;;;;5394225;26;20057;-70
2024/04/16 04:03:23;;;;;;;0.15;0.00;;;7.40;90.40;;;;;;5411093;26;20347;-71
2024/04/16 04:05:49;;;;;;;0.68;0.00;;;7.30;90.30;;;;;;5415309;26;19995;-78
2024/04/16 04:08:15;;;;;;;0.00;0.00;;;7.00;90.70;;;;;;5420776;26;20002;-70
2024/04/16 04:10:43;;;;;;;0.63;0.00;;;7.00;90.90;;;;;;5405679;26;20430;-73
2024/04/16 04:13:09;;;;;;;1.10;0.15;;;6.90;91.10;;;;;;5411668;26;20007;-71
2024/04/16 04:15:37;;;;;;;0.15;0.00;;;7.00;91.00;;;;;;5415068;26;20032;-76
2024/04/16 04:18:04;;;;;;;1.75;0.00;;;6.90;90.80;;;;;;5417721;26;20007;-73
2024/04/16 04:20:29;;;;;;;0.30;0.00;;;6.80;91.00;;;;;;5419311;26;20035;-74
2024/04/16 04:22:55;;;;;;;0.13;0.00;;;6.80;91.10;;;;;;5390336;26;19999;-76
2024/04/16 04:25:21;;;;;;;0.45;0.00;;;6.80;91.20;;;;;;5404140;26;20011;-75
2024/04/16 04:27:46;;;;;;;0.00;0.00;;;6.80;91.30;;;;;;5398717;26;20000;-74
2024/04/16 04:30:13;;;;;;;1.00;0.10;;;7.00;91.40;;;;;;5414583;26;19995;-66
2024/04/16 04:32:39;;;;;;;0.00;0.00;;;7.10;91.30;;;;;;5421861;26;20030;-75
2024/04/16 04:35:06;;;;;;;0.47;0.00;;;7.20;91.20;;;;;;5413659;26;19999;-75
2024/04/16 04:37:32;;;;;;;1.30;0.13;;;7.30;91.10;;;;;;5390766;26;20462;-74
2024/04/16 04:39:58;;;;;;;0.00;0.00;;;7.50;91.00;;;;;;5382167;26;20007;-74
2024/04/16 04:42:25;;;;;;;0.10;0.00;;;7.60;90.40;;;;;;5374194;26;20009;-74
2024/04/16 04:44:51;;;;;;;0.00;0.00;;;7.60;90.20;;;;;;5355245;26;20435;-73
2024/04/16 04:47:19;;;;;;;0.25;0.00;;;7.60;90.10;;;;;;5386173;26;20007;-73
2024/04/16 04:49:45;;;;;;;0.00;0.00;;;7.60;90.10;;;;;;5374958;26;20005;-74
2024/04/16 04:52:10;;;;;;;0.00;0.00;;;7.70;90.20;;;;;;5370414;26;20071;-74
2024/04/16 04:54:36;;;;;;;0.10;0.00;;;7.80;90.10;;;;;;5343462;26;20476;-71
2024/04/16 04:57:02;;;;;;;3.08;0.00;;;7.80;90.30;;;;;;5337739;26;20542;-74
2024/04/16 04:59:28;;;;;;;0.08;0.00;;;7.80;90.20;;;;;;5343339;26;20029;-75
2024/04/16 05:01:54;;;;;;;0.00;0.00;;;7.80;90.60;;;;;;5348370;26;20000;-72
2024/04/16 05:04:20;;;;;;;0.57;0.15;;;7.90;90.70;;;;;;5340794;26;20007;-74
2024/04/16 05:06:46;;;;;;;0.00;0.00;;;8.00;90.70;;;;;;5338786;26;19993;-74
2024/04/16 05:09:12;;;;;;;1.45;0.15;;;8.10;90.50;;;;;;5378298;26;20682;-75
2024/04/16 05:11:37;;;;;;;2.78;0.28;;;8.10;90.30;;;;;;5380456;26;20837;-69
2024/04/16 05:14:07;;;;;;;1.75;0.20;;;8.10;90.50;;;;;;5373082;26;20007;-73
2024/04/16 05:16:32;;;;;;;1.75;0.13;;;8.20;90.60;;;;;;5371291;26;20083;-70
2024/04/16 05:18:58;;;;;;;1.88;0.10;;;8.30;90.00;;;;;;5380140;26;20004;-75
2024/04/16 05:21:24;;;;;;;0.30;0.10;;;8.40;90.20;;;;;;5373608;26;20020;-69
2024/04/16 05:23:50;;;;;;;5.88;0.22;;;8.40;90.20;;;;;;5362820;26;20363;-74
2024/04/16 05:26:16;;;;;;;1.98;0.10;;;8.50;89.70;;;;;;5378449;26;20055;-72
2024/04/16 05:28:42;;;;;;;1.30;0.10;;;8.60;89.80;;;;;;5371371;26;20000;-72
2024/04/16 05:31:07;;;;;;;0.00;0.00;;;8.60;89.80;;;;;;5356301;26;20028;-72
2024/04/16 05:33:33;;;;;;;2.17;0.10;;;8.70;90.10;;;;;;5348737;26;20013;-72
2024/04/16 05:35:59;;;;;;;1.10;0.17;;;8.70;89.70;;;;;;5350468;26;20001;-73
2024/04/16 05:38:24;;;;;;;1.83;0.10;;;8.70;89.10;;;;;;5383385;26;20418;-75
2024/04/16 05:40:50;;;;;;;0.93;0.10;;;8.70;89.20;;;;;;5382043;26;20001;-69
2024/04/16 05:43:16;;;;;;;3.03;0.20;;;8.70;88.40;;;;;;5376200;26;19999;-75
2024/04/16 05:45:41;;;;;;;0.10;0.00;;;8.70;88.80;;;;;;5284160;26;20037;-70
2024/04/16 05:48:07;;;;;;;1.35;0.05;;;8.60;88.30;;;;;;5341273;26;20077;-74
2024/04/16 05:50:33;;;;;;;0.17;0.05;;;8.60;89.20;;;;;;5382663;26;20004;-74
2024/04/16 05:52:59;;;;;;;0.00;0.00;;;8.60;89.60;;;;;;5369824;26;20007;-75
2024/04/16 05:55:24;;;;;;;12.23;0.85;;;8.70;88.80;;;;;;5333828;26;20452;-76
2024/04/16 05:57:50;;;;;;;2.75;0.10;;;8.70;89.20;;;;;;5330833;26;20480;-76
2024/04/16 06:00:15;;;;;;;3.35;0.20;;;8.80;89.80;;;;;;5341143;26;20020;-71
2024/04/16 06:02:41;;;;;;;3.83;0.10;;;8.80;88.50;;;;;;5310491;26;20014;-72
2024/04/16 06:05:07;;;;;;;6.85;0.32;;;8.80;88.80;;;;;;5305257;26;20033;-74
2024/04/16 06:07:32;;;;;;;2.28;0.20;;;8.80;88.50;;;;;;5312497;26;20012;-73
2024/04/16 06:09:58;;;;;;;0.22;0.10;;;8.80;88.30;;;;;;5292594;26;20034;-75
2024/04/16 06:12:23;;;;;;;1.90;0.30;;;8.80;88.10;;;;;;5303864;26;20454;-75
2024/04/16 06:14:49;;;;;;;2.35;0.10;;;8.90;88.70;;;;;;5208957;27;20300;-71
2024/04/16 06:17:14;;;;;;;3.22;0.20;;;8.80;88.00;;;;;;5274662;26;20002;-76
2024/04/16 06:19:43;;;;;;;1.10;0.20;;;8.90;88.90;;;;;;5284374;26;20082;-72
2024/04/16 06:22:09;;;;;;;0.50;0.13;;;9.00;88.90;;;;;;5253544;26;20002;-72
2024/04/16 06:24:37;;;;;;;0.00;0.00;;;9.00;88.60;;;;;;5245844;27;20018;-70
2024/04/16 06:27:03;;;;;;;1.73;0.20;;;9.10;87.30;;;;;;5236549;26;20013;-75
2024/04/16 06:29:28;;;;;;;1.60;0.10;;;9.00;87.40;;;;;;5261849;26;20002;-69
2024/04/16 06:31:54;;;;;;;0.10;0.00;;;9.00;86.80;;;;;;5214163;27;20015;-71
2024/04/16 06:34:19;;;;;;;5.30;0.50;;;9.10;87.50;;;;;;5177492;27;20875;-73
2024/04/16 06:36:45;;;;;;;2.42;0.30;;;9.10;87.10;;;;;;5191338;27;20015;-73
2024/04/16 06:39:11;;;;;;;3.53;0.22;;;9.00;86.70;;;;;;5229122;27;20083;-72
2024/04/16 06:41:36;;;;;;;1.75;0.20;;;9.00;87.10;;;;;;5216310;27;21562;-69
2024/04/16 06:44:02;;;;;;;1.50;0.30;;;8.90;87.00;;;;;;5271985;26;20029;-71
2024/04/16 06:46:27;;;;;;;5.32;0.30;;;8.80;87.80;;;;;;5234039;27;26112;-74
2024/04/16 06:48:53;;;;;;;0.35;0.00;;;8.60;88.40;;;;;;5231167;27;20073;-72
2024/04/16 06:51:18;;;;;;;1.10;0.13;;;8.70;89.20;;;;;;5298356;26;20009;-75
2024/04/16 06:53:44;;;;;;;0.35;0.08;;;8.70;89.40;;;;;;5264564;26;20011;-75
2024/04/16 06:56:09;;;;;;;0.00;0.00;;;9.00;90.00;;;;;;5250092;27;19994;-75
2024/04/16 06:58:35;;;;;;;3.10;0.32;;;9.20;88.00;;;;;;5241037;27;20074;-75
2024/04/16 07:01:02;;;;;;;1.45;0.00;;;9.40;88.00;;;;;;5215306;27;20007;-75
2024/04/16 07:03:28;;;;;;;2.10;0.10;;;9.60;86.80;;;;;;5196287;27;20014;-73
2024/04/16 07:05:53;;;;;;;1.13;0.10;;;9.40;87.50;;;;;;5232555;27;20007;-75
2024/04/16 07:08:19;;;;;;;11.13;0.60;;;9.60;87.70;;;;;;5231476;26;20535;-73
2024/04/16 07:10:46;;;;;;;0.10;0.00;;;9.80;87.50;;;;;;5230782;27;20144;-74
2024/04/16 07:13:11;;;;;;;0.45;0.10;;;9.90;87.00;;;;;;5248002;27;20011;-76
2024/04/16 07:15:38;;;;;;;0.47;0.10;;;9.90;85.10;;;;;;5308614;26;20015;-76
2024/04/16 07:18:04;;;;;;;3.45;0.13;;;9.90;86.30;;;;;;5341430;26;20475;-74
2024/04/16 07:20:30;;;;;;;0.75;0.00;;;9.80;85.60;;;;;;5342555;26;19996;-74
2024/04/16 07:22:56;;;;;;;1.33;0.17;;;9.70;86.50;;;;;;5329363;26;20344;-72
2024/04/16 07:25:22;;;;;;;2.10;0.20;;;9.60;86.50;;;;;;5322071;26;20033;-75
2024/04/16 07:27:48;;;;;;;0.00;0.00;;;9.80;86.70;;;;;;5246439;26;20026;-73
2024/04/16 07:30:14;;;;;;;1.30;0.22;;;9.90;85.10;;;;;;5295450;26;20034;-73
2024/04/16 07:32:39;;;;;;;0.35;0.15;;;9.90;84.90;;;;;;5279593;26;20007;-75
2024/04/16 07:35:06;;;;;;;0.30;0.00;;;9.70;85.40;;;;;;5250073;26;20078;-72
2024/04/16 07:37:31;;;;;;;0.00;0.00;;;9.60;86.50;;;;;;5211652;27;20456;-74
2024/04/16 07:39:57;;;;;;;0.00;0.00;;;9.40;87.70;;;;;;5171599;27;20010;-72
2024/04/16 07:42:22;;;;;;;0.52;0.10;;;9.40;87.20;;;;;;5154948;27;24362;-69
2024/04/16 07:44:48;;;;;;;0.45;0.10;;;9.40;87.10;;;;;;5143664;27;20021;-73
2024/04/16 07:47:14;;;;;;;3.22;0.10;;;9.60;87.70;;;;;;5142082;27;20542;-79
2024/04/16 07:49:39;;;;;;;0.10;0.00;;;9.80;86.60;;;;;;5096872;27;20477;-76
2024/04/16 07:52:05;;;;;;;0.28;0.00;;;9.70;86.20;;;;;;5144755;27;20457;-74
2024/04/16 07:54:31;;;;;;;0.93;0.17;;;9.70;85.90;;;;;;5114699;27;20014;-76
2024/04/16 07:56:57;;;;;;;1.00;0.17;;;9.70;86.30;;;;;;5128522;27;20020;-75
2024/04/16 07:59:23;;;;;;;1.85;0.10;;;9.60;86.50;;;;;;5190911;27;20036;-77
2024/04/16 08:01:48;;;;;;;0.98;0.05;;;9.40;85.60;;;;;;5243265;27;20451;-69
2024/04/16 08:04:14;;;;;;;0.68;0.10;;;9.30;86.50;;;;;;5217095;27;20078;-75
2024/04/16 08:06:39;;;;;;;0.00;0.00;;;9.10;87.20;;;;;;5240422;27;20022;-73
2024/04/16 08:09:05;;;;;;;0.85;0.15;;;9.10;87.50;;;;;;5289450;26;20346;-77
2024/04/16 08:11:30;;;;;;;1.45;0.03;;;9.10;87.30;;;;;;5258461;26;20434;-73
2024/04/16 08:13:56;;;;;;;0.00;0.00;;;9.10;88.00;;;;;;5224035;27;20008;-76
2024/04/16 08:16:21;;;;;;;1.13;0.00;;;8.90;88.00;;;;;;5146344;27;20016;-76
2024/04/16 08:18:47;;;;;;;0.90;0.10;;;9.00;88.60;;;;;;5134522;27;20020;-73
2024/04/16 08:21:13;;;;;;;0.75;0.00;;;9.00;89.00;;;;;;5147730;27;20389;-76
2024/04/16 08:23:39;;;;;;;1.65;0.20;;;8.90;89.30;;;;;;5190972;27;20008;-73
2024/04/16 08:26:05;;;;;;;0.00;0.00;;;8.90;90.10;;;;;;5227339;27;20003;-73
2024/04/16 08:28:33;;;;;;;0.00;0.00;;;9.00;90.10;;;;;;5241008;26;21265;-73
2024/04/16 08:31:00;;;;;;;0.30;0.00;;;9.00;90.50;;;;;;5180464;27;20480;-75
2024/04/16 08:33:26;;;;;;;0.75;0.20;;;9.00;90.90;;;;;;5185338;27;20004;-76
2024/04/16 08:35:52;;;;;;;0.82;0.03;;;9.20;91.00;;;;;;5124465;27;20017;-72
2024/04/16 08:38:18;;;;;;;1.95;0.10;;;9.40;90.80;;;;;;5178717;27;20031;-75
2024/04/16 08:40:47;;;;;;;0.08;0.00;;;9.50;90.70;;;;;;5202763;27;20003;-75
2024/04/16 08:43:13;;;;;;;0.15;0.00;;;9.50;90.70;;;;;;5222577;27;20007;-73
2024/04/16 08:45:42;;;;;;;1.00;0.10;;;9.50;90.40;;;;;;5205089;27;20000;-78
2024/04/16 08:48:08;;;;;;;0.00;0.00;;;9.30;90.30;;;;;;5194478;27;20412;-75
2024/04/16 08:50:36;;;;;;;2.58;0.13;;;9.00;91.10;;;;;;5216043;27;19994;-73
2024/04/16 08:53:02;;;;;;;0.00;0.00;;;8.80;91.70;;;;;;5214220;27;20011;-73
2024/04/16 08:55:30;;;;;;;2.28;0.20;;;8.60;92.30;;;;;;5217653;27;19999;-77
2024/04/16 08:57:55;;;;;;;0.50;0.10;;;8.50;92.90;;;;;;5199114;27;20014;-77
2024/04/16 09:00:22;;;;;;;0.57;0.10;;;8.60;93.50;;;;;;5185031;27;20028;-79
2024/04/16 09:02:50;;;;;;;1.20;0.00;;;8.50;92.80;;;;;;5254635;26;20396;-76
2024/04/16 09:05:16;;;;;;;1.10;0.08;;;8.30;93.00;;;;;;5224545;27;20010;-76
2024/04/16 09:07:42;;;;;;;0.22;0.05;;;8.20;93.60;;;;;;5270440;26;19998;-74
2024/04/16 09:10:24;;;;;;;0.00;0.00;;;8.20;93.90;;;;;;5269077;26;20009;-72
2024/04/16 09:12:50;;;;;;;0.00;0.00;;;8.20;94.10;;;;;;5240048;26;20035;-73
2024/04/16 09:15:18;;;;;;;0.10;0.00;;;8.10;94.10;;;;;;5311201;26;21011;-73
2024/04/16 09:17:54;;;;;;;0.08;0.00;;;8.10;94.30;;;;;;5355734;26;20006;-78
2024/04/16 09:20:20;;;;;;;0.00;0.00;;;8.20;94.50;;;;;;5389377;26;20000;-73
2024/04/16 09:22:51;;;;;;;0.00;0.00;;;8.10;94.30;;;;;;5383214;26;20006;-74
2024/04/16 09:25:20;;;;;;;0.00;0.00;;;8.20;94.50;;;;;;5379440;26;20051;-74
2024/04/16 09:27:47;;;;;;;0.85;0.10;;;8.20;94.20;;;;;;5348729;26;19997;-72
2024/04/16 09:30:13;;;;;;;0.80;0.10;;;8.20;94.50;;;;;;5367175;26;19999;-77
2024/04/16 09:32:41;;;;;;;0.20;0.00;;;8.30;94.70;;;;;;5368467;26;20039;-79
2024/04/16 09:35:07;;;;;;;0.00;0.00;;;8.40;94.50;;;;;;5331957;26;20392;-74
2024/04/16 09:37:32;;;;;;;0.10;0.00;;;8.40;94.60;;;;;;5357104;26;20004;-83
2024/04/16 09:40:01;;;;;;;0.00;0.00;;;8.40;94.60;;;;;;5382080;26;20470;-82
2024/04/16 09:42:29;;;;;;;0.45;0.00;;;8.40;94.70;;;;;;5372907;26;20011;-80
2024/04/16 09:44:56;;;;;;;;;;;8.30;94.90;;;;;;5374402;26;20040;-72
2024/04/16 09:47:22;;;;;;;0.00;0.00;;;8.40;94.80;;;;;;5367431;26;20353;-74
2024/04/16 09:49:51;;;;;;;0.00;0.00;;;8.20;94.50;;;;;;5358785;26;20004;-74
2024/04/16 09:52:18;;;;;;;0.00;0.00;;;8.30;95.00;;;;;;5297614;26;19997;-70
2024/04/16 09:54:45;;;;;;;0.08;0.00;;;8.40;95.30;;;;;;5299964;26;20028;-75
2024/04/16 09:57:11;;;;;;;0.00;0.00;;;8.40;95.00;;;;;;5272309;26;20401;-75
2024/04/16 09:59:38;;;;;;;0.45;0.00;;;8.60;95.10;;;;;;5263392;26;20069;-73
2024/04/16 10:02:04;;;;;;;0.00;0.00;;;8.70;94.90;;;;;;5267850;27;20030;-76
2024/04/16 10:04:30;;;;;;;1.08;0.00;;;8.70;94.90;;;;;;5247845;27;19999;-74
2024/04/16 10:06:56;;;;;;;0.08;0.00;;;8.70;94.60;;;;;;5275384;26;20013;-77
2024/04/16 10:09:23;;;;;;;0.00;0.00;;;8.80;95.00;;;;;;5324799;26;20484;-77
2024/04/16 10:11:49;;;;;;;0.00;0.00;;;8.90;95.40;;;;;;5371458;26;19999;-79
2024/04/16 10:14:15;;;;;;;0.10;0.00;;;9.10;94.80;;;;;;5421042;26;20006;-81
2024/04/16 10:16:41;;;;;;;0.00;0.00;;;9.20;95.00;;;;;;5350281;26;1018889;-79
2024/04/16 10:19:07;;;;;;;0.00;0.00;;;9.30;94.80;;;;;;5379639;26;20005;-82
2024/04/16 10:21:39;;;;;;;0.00;0.00;;;9.40;94.60;;;;;;5383186;26;19996;-81
2024/04/16 10:24:15;;;;;;;0.00;0.00;;;9.50;94.30;;;;;;5390371;26;20574;-79
2024/04/16 10:26:45;;;;;;;2.42;0.10;;;9.50;94.20;;;;;;5388779;26;20011;-67
2024/04/16 10:29:26;;;;;;;0.15;0.00;;;9.40;94.10;;;;;;5386688;26;20011;-67
2024/04/16 10:31:53;;;;;;;0.00;0.00;;;9.40;94.20;;;;;;5387656;26;20012;-76
2024/04/16 10:34:26;;;;;;;0.75;0.00;;;9.40;94.50;;;;;;5384317;26;20000;-87
2024/04/16 10:36:53;;;;;;;0.90;0.00;;;9.50;94.30;;;;;;5353529;26;20012;-79
2024/04/16 10:39:19;;;;;;;0.30;0.00;;;9.60;94.10;;;;;;5374829;26;20004;-80
2024/04/16 10:41:52;;;;;;;0.63;0.13;;;9.60;94.20;;;;;;5367780;26;20750;-81
2024/04/16 10:44:18;;;;;;;0.00;0.00;;;9.70;94.20;;;;;;5372656;26;20012;-80
2024/04/16 10:46:44;;;;;;;0.00;0.00;;;9.80;94.10;;;;;;5367906;26;20017;-77
2024/04/16 10:49:14;;;;;;;0.98;0.05;;;9.80;93.80;;;;;;5354486;26;20016;-74
2024/04/16 10:51:39;;;;;;;1.45;0.00;;;9.80;93.10;;;;;;5368587;26;20011;-76
2024/04/16 10:54:06;;;;;;;0.00;0.00;;;9.80;93.40;;;;;;5377308;26;20004;-76
2024/04/16 10:56:32;;;;;;;0.08;0.00;;;9.90;93.40;;;;;;5371391;26;20082;-77
2024/04/16 10:58:57;;;;;;;0.00;0.00;;;10.00;93.20;;;;;;5349664;26;20020;-77
2024/04/16 11:01:23;;;;;;;0.00;0.00;;;10.00;92.80;;;;;;5371868;26;20095;-76
2024/04/16 11:03:49;;;;;;;0.08;0.00;;;10.00;93.00;;;;;;5382018;26;20521;-76
2024/04/16 11:06:16;;;;;;;0.45;0.00;;;10.10;93.00;;;;;;5382974;26;20004;-78
2024/04/16 11:08:42;;;;;;;0.10;0.00;;;10.10;92.60;;;;;;5364504;26;20008;-75
2024/04/16 11:11:09;;;;;;;0.35;0.00;;;10.20;92.30;;;;;;5351257;26;20033;-77
2024/04/16 11:13:35;;;;;;;0.30;0.00;;;10.20;92.20;;;;;;5368683;26;20306;-77
2024/04/16 11:16:01;;;;;;;0.00;0.00;;;10.10;91.70;;;;;;5366935;26;20004;-81
2024/04/16 11:18:30;;;;;;;0.10;0.00;;;10.10;92.30;;;;;;5367942;26;20067;-74
2024/04/16 11:20:56;;;;;;;0.00;0.00;;;10.30;92.30;;;;;;5368316;26;20010;-73
2024/04/16 11:23:22;;;;;;;0.10;0.00;;;10.30;91.30;;;;;;5369694;26;20004;-74
2024/04/16 11:25:47;;;;;;;0.00;0.00;;;10.20;91.60;;;;;;5305172;26;20414;-76
2024/04/16 11:28:14;;;;;;;0.10;0.00;;;10.20;92.20;;;;;;5308609;26;20369;-76
2024/04/16 11:30:56;;;;;;;0.25;0.00;;;10.30;92.10;;;;;;5350235;26;20037;-71
2024/04/16 11:33:22;;;;;;;0.00;0.00;;;10.50;91.80;;;;;;5311313;26;20044;-66
2024/04/16 11:35:47;;;;;;;0.25;0.00;;;10.60;91.20;;;;;;5291758;26;20454;-69
2024/04/16 11:38:17;;;;;;;0.00;0.00;;;10.50;90.60;;;;;;5333590;26;20015;-68
2024/04/16 11:40:42;;;;;;;0.05;0.00;;;10.50;91.20;;;;;;5328451;26;20059;-70
2024/04/16 11:43:08;;;;;;;0.30;0.00;;;10.50;91.10;;;;;;5366082;26;20016;-79
2024/04/16 11:45:34;;;;;;;0.32;0.00;;;10.40;91.40;;;;;;5367431;26;20071;-82
2024/04/16 11:48:00;;;;;;;1.08;0.00;;;10.50;92.00;;;;;;5365852;26;20058;-76
2024/04/16 11:50:26;;;;;;;0.77;0.08;;;10.50;91.80;;;;;;5362339;26;20005;-74
2024/04/16 11:52:51;;;;;;;0.30;0.00;;;10.70;92.30;;;;;;5366835;26;20012;-80
2024/04/16 11:55:17;;;;;;;0.20;0.00;;;10.80;91.40;;;;;;5373893;26;20076;-70
2024/04/16 11:57:42;;;;;;;1.75;0.05;;;11.00;90.80;;;;;;5367106;26;20008;-75
2024/04/16 12:00:08;;;;;;;0.60;0.00;;;11.10;90.80;;;;;;5376402;26;20005;-73
2024/04/16 12:02:36;;;;;;;1.40;0.08;;;11.20;90.90;;;;;;5377136;26;20008;-79
2024/04/16 12:05:01;;;;;;;0.43;0.10;;;11.30;91.00;;;;;;5368594;26;20459;-74
2024/04/16 12:07:27;;;;;;;0.00;0.00;;;11.40;91.20;;;;;;5380714;26;20019;-72
2024/04/16 12:09:53;;;;;;;0.75;0.08;;;11.40;91.00;;;;;;5371291;26;20011;-78
2024/04/16 12:12:18;;;;;;;0.00;0.00;;;11.50;90.10;;;;;;5369231;26;20000;-77
2024/04/16 12:14:44;;;;;;;3.00;0.00;;;11.50;88.80;;;;;;5378157;26;19996;-80
2024/04/16 12:17:10;;;;;;;0.00;0.00;;;11.50;88.80;;;;;;5369641;26;20408;-77
2024/04/16 12:19:35;;;;;;;0.00;0.00;;;11.60;88.40;;;;;;5375615;26;20004;-70
2024/04/16 12:22:01;;;;;;;0.45;0.00;;;11.60;89.30;;;;;;5377377;26;20275;-76
2024/04/16 12:24:26;;;;;;;0.00;0.00;;;11.50;88.50;;;;;;5383160;26;20446;-77
2024/04/16 12:26:52;;;;;;;0.73;0.10;;;11.50;87.60;;;;;;5384096;26;20010;-80
2024/04/16 12:29:17;;;;;;;0.75;0.17;;;11.60;88.60;;;;;;5379327;26;20028;-74
2024/04/16 12:31:43;;;;;;;0.10;0.00;;;11.70;89.70;;;;;;5365201;26;20011;-76
2024/04/16 12:34:10;;;;;;;0.00;0.00;;;11.80;90.20;;;;;;5380110;26;20051;-77
2024/04/16 12:36:36;;;;;;;0.10;0.00;;;11.90;87.80;;;;;;5377025;26;20000;-77
2024/04/16 12:39:03;;;;;;;0.00;0.00;;;12.00;87.70;;;;;;5360922;26;19996;-79
2024/04/16 12:41:28;;;;;;;0.70;0.10;;;12.10;88.10;;;;;;5360592;26;20012;-69
2024/04/16 12:43:54;;;;;;;1.65;0.10;;;12.10;86.70;;;;;;5361495;26;20369;-72
2024/04/16 12:46:20;;;;;;;0.10;0.00;;;12.20;87.30;;;;;;5367279;26;20008;-67
2024/04/16 12:48:45;;;;;;;0.22;0.00;;;12.30;87.60;;;;;;5337290;26;20060;-77
2024/04/16 12:51:11;;;;;;;0.75;0.10;;;12.10;84.50;;;;;;5367296;26;20003;-77
2024/04/16 12:53:37;;;;;;;0.00;0.00;;;12.10;85.90;;;;;;5343698;26;20045;-79